sensor_id;sensor_type;location;lat;lon;timestamp;temperature;humidity
22813;DHT22;11573;51.334;3.244;2023-04-15T00:01:47;9.30;99.90
22813;DHT22;11573;51.334;3.244;2023-04-15T00:04:14;9.20;99.90
22813;DHT22;11573;51.334;3.244;2023-04-15T00:06:42;9.10;99.90
22813;DHT22;11573;51.334;3.244;2023-04-15T00:09:09;9.10;99.90
22813;DHT22;11573;51.334;3.244;2023-04-15T00:11:36;9.00;99.90
22813;DHT22;11573;51.334;3.244;2023-04-15T00:14:02;9.00;99.90
22813;DHT22;11573;51.334;3.244;2023-04-15T00:16:30;9.10;99.90
22813;DHT22;11573;51.334;3.244;2023-04-15T00:18:57;9.10;99.90
22813;DHT22;11573;51.334;3.244;2023-04-15T00:21:25;9.10;99.90
22813;DHT22;11573;51.334;3.244;2023-04-15T00:23:53;9.10;99.90
22813;DHT22;11573;51.334;3.244;2023-04-15T00:26:20;9.10;99.90
22813;DHT22;11573;51.334;3.244;2023-04-15T00:28:49;9.10;99.90
22813;DHT22;11573;51.334;3.244;2023-04-15T00:31:16;9.00;99.90
22813;DHT22;11573;51.334;3.244;2023-04-15T00:33:43;9.00;99.90
22813;DHT22;11573;51.334;3.244;2023-04-15T00:36:10;8.90;99.90
22813;DHT22;11573;51.334;3.244;2023-04-15T00:38:37;8.90;99.90
22813;DHT22;11573;51.334;3.244;2023-04-15T00:41:04;8.80;99.90
22813;DHT22;11573;51.334;3.244;2023-04-15T00:43:31;8.90;99.90
22813;DHT22;11573;51.334;3.244;2023-04-15T00:45:59;8.90;99.90
22813;DHT22;11573;51.334;3.244;2023-04-15T00:48:27;8.80;99.90
22813;DHT22;11573;51.334;3.244;2023-04-15T00:50:54;8.80;99.90
22813;DHT22;11573;51.334;3.244;2023-04-15T00:53:21;8.80;99.90
22813;DHT22;11573;51.334;3.244;2023-04-15T00:55:48;8.80;99.90
22813;DHT22;11573;51.334;3.244;2023-04-15T00:58:15;8.90;99.90
22813;DHT22;11573;51.334;3.244;2023-04-15T01:00:43;8.90;99.90
22813;DHT22;11573;51.334;3.244;2023-04-15T01:03:10;9.00;99.90
22813;DHT22;11573;51.334;3.244;2023-04-15T01:05:37;9.00;99.90
22813;DHT22;11573;51.334;3.244;2023-04-15T01:08:05;9.00;99.90
22813;DHT22;11573;51.334;3.244;2023-04-15T01:10:32;9.00;99.90
22813;DHT22;11573;51.334;3.244;2023-04-15T01:13:00;9.00;99.90
22813;DHT22;11573;51.334;3.244;2023-04-15T01:15:27;9.00;99.90
22813;DHT22;11573;51.334;3.244;2023-04-15T01:17:53;9.00;99.90
22813;DHT22;11573;51.334;3.244;2023-04-15T01:20:21;8.90;99.90
22813;DHT22;11573;51.334;3.244;2023-04-15T01:22:48;8.90;99.90
22813;DHT22;11573;51.334;3.244;2023-04-15T01:25:24;8.80;99.90
22813;DHT22;11573;51.334;3.244;2023-04-15T01:27:52;8.80;99.90
22813;DHT22;11573;51.334;3.244;2023-04-15T01:30:19;8.70;99.90
22813;DHT22;11573;51.334;3.244;2023-04-15T01:32:47;8.80;99.90
22813;DHT22;11573;51.334;3.244;2023-04-15T01:35:14;8.80;99.90
22813;DHT22;11573;51.334;3.244;2023-04-15T01:37:41;8.80;99.90
22813;DHT22;11573;51.334;3.244;2023-04-15T01:40:08;8.80;99.90
22813;DHT22;11573;51.334;3.244;2023-04-15T01:42:36;8.80;99.90
22813;DHT22;11573;51.334;3.244;2023-04-15T01:45:03;8.80;99.90
22813;DHT22;11573;51.334;3.244;2023-04-15T01:47:31;8.70;99.90
22813;DHT22;11573;51.334;3.244;2023-04-15T01:49:58;8.70;99.90
22813;DHT22;11573;51.334;3.244;2023-04-15T01:52:24;8.70;99.90
22813;DHT22;11573;51.334;3.244;2023-04-15T01:54:51;8.70;99.90
22813;DHT22;11573;51.334;3.244;2023-04-15T01:57:19;8.70;99.90
22813;DHT22;11573;51.334;3.244;2023-04-15T01:59:45;8.70;99.90
22813;DHT22;11573;51.334;3.244;2023-04-15T02:02:13;8.70;99.90
22813;DHT22;11573;51.334;3.244;2023-04-15T02:04:41;8.80;99.90
22813;DHT22;11573;51.334;3.244;2023-04-15T02:07:08;8.70;99.90
22813;DHT22;11573;51.334;3.244;2023-04-15T02:09:35;8.70;99.90
22813;DHT22;11573;51.334;3.244;2023-04-15T02:12:02;8.70;99.90
22813;DHT22;11573;51.334;3.244;2023-04-15T02:14:29;8.70;99.90
22813;DHT22;11573;51.334;3.244;2023-04-15T02:16:56;8.80;99.90
22813;DHT22;11573;51.334;3.244;2023-04-15T02:19:23;8.70;99.90
22813;DHT22;11573;51.334;3.244;2023-04-15T02:21:50;8.70;99.90
22813;DHT22;11573;51.334;3.244;2023-04-15T02:24:17;8.70;99.90
22813;DHT22;11573;51.334;3.244;2023-04-15T02:26:44;8.80;99.90
22813;DHT22;11573;51.334;3.244;2023-04-15T02:29:12;8.80;99.90
22813;DHT22;11573;51.334;3.244;2023-04-15T02:31:39;8.90;99.90
22813;DHT22;11573;51.334;3.244;2023-04-15T02:34:07;8.90;99.90
22813;DHT22;11573;51.334;3.244;2023-04-15T02:36:34;8.90;99.90
22813;DHT22;11573;51.334;3.244;2023-04-15T02:39:04;8.90;99.90
22813;DHT22;11573;51.334;3.244;2023-04-15T02:41:30;8.90;99.90
22813;DHT22;11573;51.334;3.244;2023-04-15T02:43:57;8.90;99.90
22813;DHT22;11573;51.334;3.244;2023-04-15T02:46:24;8.90;99.90
22813;DHT22;11573;51.334;3.244;2023-04-15T02:48:53;8.80;99.90
22813;DHT22;11573;51.334;3.244;2023-04-15T02:51:22;8.80;99.90
22813;DHT22;11573;51.334;3.244;2023-04-15T02:53:49;8.90;99.90
22813;DHT22;11573;51.334;3.244;2023-04-15T02:56:16;8.90;99.90
22813;DHT22;11573;51.334;3.244;2023-04-15T02:58:45;8.90;99.90
22813;DHT22;11573;51.334;3.244;2023-04-15T03:01:12;8.90;99.90
22813;DHT22;11573;51.334;3.244;2023-04-15T03:03:40;8.90;99.90
22813;DHT22;11573;51.334;3.244;2023-04-15T03:06:08;8.90;99.90
22813;DHT22;11573;51.334;3.244;2023-04-15T03:08:35;8.90;99.90
22813;DHT22;11573;51.334;3.244;2023-04-15T03:11:03;8.90;99.90
22813;DHT22;11573;51.334;3.244;2023-04-15T03:13:31;8.90;99.90
22813;DHT22;11573;51.334;3.244;2023-04-15T03:16:03;8.90;99.90
22813;DHT22;11573;51.334;3.244;2023-04-15T03:18:31;8.90;99.90
22813;DHT22;11573;51.334;3.244;2023-04-15T03:21:01;8.90;99.90
22813;DHT22;11573;51.334;3.244;2023-04-15T03:23:31;8.90;99.90
22813;DHT22;11573;51.334;3.244;2023-04-15T03:26:01;8.90;99.90
22813;DHT22;11573;51.334;3.244;2023-04-15T03:28:29;8.90;99.90
22813;DHT22;11573;51.334;3.244;2023-04-15T03:30:58;8.90;99.90
22813;DHT22;11573;51.334;3.244;2023-04-15T03:33:25;9.00;99.90
22813;DHT22;11573;51.334;3.244;2023-04-15T03:35:52;9.00;99.90
22813;DHT22;11573;51.334;3.244;2023-04-15T03:38:19;9.00;99.90
22813;DHT22;11573;51.334;3.244;2023-04-15T03:40:46;9.00;99.90
22813;DHT22;11573;51.334;3.244;2023-04-15T03:43:13;9.10;99.90
22813;DHT22;11573;51.334;3.244;2023-04-15T03:45:41;9.10;99.90
22813;DHT22;11573;51.334;3.244;2023-04-15T03:48:08;9.20;99.90
22813;DHT22;11573;51.334;3.244;2023-04-15T03:50:44;9.20;99.90
22813;DHT22;11573;51.334;3.244;2023-04-15T03:53:11;9.20;99.90
22813;DHT22;11573;51.334;3.244;2023-04-15T03:55:38;9.20;99.90
22813;DHT22;11573;51.334;3.244;2023-04-15T03:58:05;9.20;99.90
22813;DHT22;11573;51.334;3.244;2023-04-15T04:00:32;9.10;99.90
22813;DHT22;11573;51.334;3.244;2023-04-15T04:02:59;9.00;99.90
22813;DHT22;11573;51.334;3.244;2023-04-15T04:05:26;9.00;99.90
22813;DHT22;11573;51.334;3.244;2023-04-15T04:07:53;9.10;99.90
22813;DHT22;11573;51.334;3.244;2023-04-15T04:10:21;9.00;99.90
22813;DHT22;11573;51.334;3.244;2023-04-15T04:12:47;9.10;99.90
22813;DHT22;11573;51.334;3.244;2023-04-15T04:15:14;9.10;99.90
22813;DHT22;11573;51.334;3.244;2023-04-15T04:17:41;9.10;99.90
22813;DHT22;11573;51.334;3.244;2023-04-15T04:20:09;9.10;99.90
22813;DHT22;11573;51.334;3.244;2023-04-15T04:22:40;9.10;99.90
22813;DHT22;11573;51.334;3.244;2023-04-15T04:25:08;9.10;99.90
22813;DHT22;11573;51.334;3.244;2023-04-15T04:27:36;9.10;99.90
22813;DHT22;11573;51.334;3.244;2023-04-15T04:30:04;9.10;99.90
22813;DHT22;11573;51.334;3.244;2023-04-15T04:32:32;9.20;99.90
22813;DHT22;11573;51.334;3.244;2023-04-15T04:34:59;9.10;99.90
22813;DHT22;11573;51.334;3.244;2023-04-15T04:37:26;9.10;99.90
22813;DHT22;11573;51.334;3.244;2023-04-15T04:39:53;9.00;99.90
22813;DHT22;11573;51.334;3.244;2023-04-15T04:42:19;9.00;99.90
22813;DHT22;11573;51.334;3.244;2023-04-15T04:44:46;8.90;99.90
22813;DHT22;11573;51.334;3.244;2023-04-15T04:47:13;8.90;99.90
22813;DHT22;11573;51.334;3.244;2023-04-15T04:49:40;8.80;99.90
22813;DHT22;11573;51.334;3.244;2023-04-15T04:52:07;8.80;99.90
22813;DHT22;11573;51.334;3.244;2023-04-15T04:54:34;8.70;99.90
22813;DHT22;11573;51.334;3.244;2023-04-15T04:57:02;8.70;99.90
22813;DHT22;11573;51.334;3.244;2023-04-15T04:59:28;8.70;99.90
22813;DHT22;11573;51.334;3.244;2023-04-15T05:01:55;8.80;99.90
22813;DHT22;11573;51.334;3.244;2023-04-15T05:04:23;8.80;99.90
22813;DHT22;11573;51.334;3.244;2023-04-15T05:06:50;8.70;99.90
22813;DHT22;11573;51.334;3.244;2023-04-15T05:09:17;8.70;99.90
22813;DHT22;11573;51.334;3.244;2023-04-15T05:11:44;8.70;99.90
22813;DHT22;11573;51.334;3.244;2023-04-15T05:14:11;8.70;99.90
22813;DHT22;11573;51.334;3.244;2023-04-15T05:16:38;8.70;99.90
22813;DHT22;11573;51.334;3.244;2023-04-15T05:19:05;8.70;99.90
22813;DHT22;11573;51.334;3.244;2023-04-15T05:21:33;8.80;99.90
22813;DHT22;11573;51.334;3.244;2023-04-15T05:24:00;8.80;99.90
22813;DHT22;11573;51.334;3.244;2023-04-15T05:26:27;8.90;99.90
22813;DHT22;11573;51.334;3.244;2023-04-15T05:28:54;8.80;99.90
22813;DHT22;11573;51.334;3.244;2023-04-15T05:31:21;8.80;99.90
22813;DHT22;11573;51.334;3.244;2023-04-15T05:33:48;8.80;99.90
22813;DHT22;11573;51.334;3.244;2023-04-15T05:36:15;8.80;99.90
22813;DHT22;11573;51.334;3.244;2023-04-15T05:38:42;8.80;99.90
22813;DHT22;11573;51.334;3.244;2023-04-15T05:41:09;8.80;99.90
22813;DHT22;11573;51.334;3.244;2023-04-15T05:43:36;8.80;99.90
22813;DHT22;11573;51.334;3.244;2023-04-15T05:46:03;8.80;99.90
22813;DHT22;11573;51.334;3.244;2023-04-15T05:48:30;8.80;99.90
22813;DHT22;11573;51.334;3.244;2023-04-15T05:50:57;8.80;99.90
22813;DHT22;11573;51.334;3.244;2023-04-15T05:53:24;8.80;99.90
22813;DHT22;11573;51.334;3.244;2023-04-15T05:55:51;8.80;99.90
22813;DHT22;11573;51.334;3.244;2023-04-15T05:58:18;8.80;99.90
22813;DHT22;11573;51.334;3.244;2023-04-15T06:00:45;8.80;99.90
22813;DHT22;11573;51.334;3.244;2023-04-15T06:03:12;8.90;99.90
22813;DHT22;11573;51.334;3.244;2023-04-15T06:05:39;8.90;99.90
22813;DHT22;11573;51.334;3.244;2023-04-15T06:08:06;9.00;99.90
22813;DHT22;11573;51.334;3.244;2023-04-15T06:10:34;9.10;99.90
22813;DHT22;11573;51.334;3.244;2023-04-15T06:13:02;9.20;99.90
22813;DHT22;11573;51.334;3.244;2023-04-15T06:15:29;9.20;99.90
22813;DHT22;11573;51.334;3.244;2023-04-15T06:17:57;9.20;99.90
22813;DHT22;11573;51.334;3.244;2023-04-15T06:20:24;9.30;99.90
22813;DHT22;11573;51.334;3.244;2023-04-15T06:22:51;9.30;99.90
22813;DHT22;11573;51.334;3.244;2023-04-15T06:25:18;9.40;99.90
22813;DHT22;11573;51.334;3.244;2023-04-15T06:27:45;9.50;99.90
22813;DHT22;11573;51.334;3.244;2023-04-15T06:30:12;9.60;99.90
22813;DHT22;11573;51.334;3.244;2023-04-15T06:32:40;9.60;99.90
22813;DHT22;11573;51.334;3.244;2023-04-15T06:35:07;9.70;99.90
22813;DHT22;11573;51.334;3.244;2023-04-15T06:37:34;9.70;99.90
22813;DHT22;11573;51.334;3.244;2023-04-15T06:40:01;9.80;99.90
22813;DHT22;11573;51.334;3.244;2023-04-15T06:42:28;10.00;99.90
22813;DHT22;11573;51.334;3.244;2023-04-15T06:44:55;10.00;99.90
22813;DHT22;11573;51.334;3.244;2023-04-15T06:47:22;10.00;99.90
22813;DHT22;11573;51.334;3.244;2023-04-15T06:49:49;10.10;99.90
22813;DHT22;11573;51.334;3.244;2023-04-15T06:52:16;10.10;99.90
22813;DHT22;11573;51.334;3.244;2023-04-15T06:54:43;10.00;94.50
22813;DHT22;11573;51.334;3.244;2023-04-15T06:57:10;10.10;91.00
22813;DHT22;11573;51.334;3.244;2023-04-15T06:59:37;10.20;90.20
22813;DHT22;11573;51.334;3.244;2023-04-15T07:02:04;10.30;94.10
22813;DHT22;11573;51.334;3.244;2023-04-15T07:04:31;10.40;94.00
22813;DHT22;11573;51.334;3.244;2023-04-15T07:06:59;10.40;93.10
22813;DHT22;11573;51.334;3.244;2023-04-15T07:09:26;10.40;95.70
22813;DHT22;11573;51.334;3.244;2023-04-15T07:11:53;10.50;97.30
22813;DHT22;11573;51.334;3.244;2023-04-15T07:14:20;10.60;99.90
22813;DHT22;11573;51.334;3.244;2023-04-15T07:16:47;10.50;99.90
22813;DHT22;11573;51.334;3.244;2023-04-15T07:19:14;10.60;99.90
22813;DHT22;11573;51.334;3.244;2023-04-15T07:21:41;10.50;99.90
22813;DHT22;11573;51.334;3.244;2023-04-15T07:24:08;10.60;99.90
22813;DHT22;11573;51.334;3.244;2023-04-15T07:26:36;10.60;99.90
22813;DHT22;11573;51.334;3.244;2023-04-15T07:29:03;10.70;99.90
22813;DHT22;11573;51.334;3.244;2023-04-15T07:31:30;10.80;99.90
22813;DHT22;11573;51.334;3.244;2023-04-15T07:33:57;10.80;99.90
22813;DHT22;11573;51.334;3.244;2023-04-15T07:36:24;10.70;99.90
22813;DHT22;11573;51.334;3.244;2023-04-15T07:38:51;10.70;99.90
22813;DHT22;11573;51.334;3.244;2023-04-15T07:41:18;10.80;99.90
22813;DHT22;11573;51.334;3.244;2023-04-15T07:43:46;10.80;99.90
22813;DHT22;11573;51.334;3.244;2023-04-15T07:46:14;10.80;99.90
22813;DHT22;11573;51.334;3.244;2023-04-15T07:48:41;10.70;99.90
22813;DHT22;11573;51.334;3.244;2023-04-15T07:51:08;10.90;99.90
22813;DHT22;11573;51.334;3.244;2023-04-15T07:53:36;11.00;99.90
22813;DHT22;11573;51.334;3.244;2023-04-15T07:56:04;11.00;99.90
22813;DHT22;11573;51.334;3.244;2023-04-15T07:58:31;11.00;99.90
22813;DHT22;11573;51.334;3.244;2023-04-15T08:00:58;10.90;99.90
22813;DHT22;11573;51.334;3.244;2023-04-15T08:03:25;10.90;99.90
22813;DHT22;11573;51.334;3.244;2023-04-15T08:05:52;11.00;99.90
22813;DHT22;11573;51.334;3.244;2023-04-15T08:08:20;11.10;99.90
22813;DHT22;11573;51.334;3.244;2023-04-15T08:10:49;11.20;99.90
22813;DHT22;11573;51.334;3.244;2023-04-15T08:13:18;11.40;99.90
22813;DHT22;11573;51.334;3.244;2023-04-15T08:15:52;11.60;99.90
22813;DHT22;11573;51.334;3.244;2023-04-15T08:18:19;11.70;99.90
22813;DHT22;11573;51.334;3.244;2023-04-15T08:20:46;11.70;99.90
22813;DHT22;11573;51.334;3.244;2023-04-15T08:23:13;11.60;99.90
22813;DHT22;11573;51.334;3.244;2023-04-15T08:25:40;11.50;99.90
22813;DHT22;11573;51.334;3.244;2023-04-15T08:28:08;11.60;99.90
22813;DHT22;11573;51.334;3.244;2023-04-15T08:30:34;11.70;99.90
22813;DHT22;11573;51.334;3.244;2023-04-15T08:33:01;11.70;99.90
22813;DHT22;11573;51.334;3.244;2023-04-15T08:35:29;11.80;99.90
22813;DHT22;11573;51.334;3.244;2023-04-15T08:37:56;11.90;99.90
22813;DHT22;11573;51.334;3.244;2023-04-15T08:40:30;11.90;99.90
22813;DHT22;11573;51.334;3.244;2023-04-15T08:43:02;11.80;99.10
22813;DHT22;11573;51.334;3.244;2023-04-15T08:45:30;11.90;97.90
22813;DHT22;11573;51.334;3.244;2023-04-15T08:47:58;12.00;97.40
22813;DHT22;11573;51.334;3.244;2023-04-15T08:50:28;12.10;95.20
22813;DHT22;11573;51.334;3.244;2023-04-15T08:52:58;12.10;98.60
22813;DHT22;11573;51.334;3.244;2023-04-15T08:55:29;12.30;95.40
22813;DHT22;11573;51.334;3.244;2023-04-15T08:58:00;12.20;94.90
22813;DHT22;11573;51.334;3.244;2023-04-15T09:00:28;12.20;99.90
22813;DHT22;11573;51.334;3.244;2023-04-15T09:02:55;12.40;99.90
22813;DHT22;11573;51.334;3.244;2023-04-15T09:05:22;12.40;97.50
22813;DHT22;11573;51.334;3.244;2023-04-15T09:07:50;12.40;98.50
22813;DHT22;11573;51.334;3.244;2023-04-15T09:10:17;12.30;99.90
22813;DHT22;11573;51.334;3.244;2023-04-15T09:12:44;12.40;97.40
22813;DHT22;11573;51.334;3.244;2023-04-15T09:15:11;12.40;97.60
22813;DHT22;11573;51.334;3.244;2023-04-15T09:17:42;12.60;99.90
22813;DHT22;11573;51.334;3.244;2023-04-15T09:20:14;12.60;93.20
22813;DHT22;11573;51.334;3.244;2023-04-15T09:22:44;12.60;84.30
22813;DHT22;11573;51.334;3.244;2023-04-15T09:27:59;12.40;99.90
22813;DHT22;11573;51.334;3.244;2023-04-15T09:30:27;12.20;99.90
22813;DHT22;11573;51.334;3.244;2023-04-15T09:32:58;12.10;99.90
22813;DHT22;11573;51.334;3.244;2023-04-15T09:35:27;12.00;99.90
22813;DHT22;11573;51.334;3.244;2023-04-15T09:38:08;11.80;99.90
22813;DHT22;11573;51.334;3.244;2023-04-15T09:40:38;11.70;99.90
22813;DHT22;11573;51.334;3.244;2023-04-15T09:43:06;11.50;99.90
22813;DHT22;11573;51.334;3.244;2023-04-15T09:45:34;11.30;99.90
22813;DHT22;11573;51.334;3.244;2023-04-15T09:48:34;11.40;99.90
22813;DHT22;11573;51.334;3.244;2023-04-15T09:51:02;11.80;99.90
22813;DHT22;11573;51.334;3.244;2023-04-15T09:53:33;11.90;99.90
22813;DHT22;11573;51.334;3.244;2023-04-15T09:56:00;12.10;99.90
22813;DHT22;11573;51.334;3.244;2023-04-15T09:58:30;12.20;99.90
22813;DHT22;11573;51.334;3.244;2023-04-15T10:00:58;12.10;99.90
22813;DHT22;11573;51.334;3.244;2023-04-15T10:03:27;12.20;99.90
22813;DHT22;11573;51.334;3.244;2023-04-15T10:05:56;12.40;99.90
22813;DHT22;11573;51.334;3.244;2023-04-15T10:08:26;12.40;99.90
22813;DHT22;11573;51.334;3.244;2023-04-15T10:10:54;12.50;99.90
22813;DHT22;11573;51.334;3.244;2023-04-15T10:13:26;12.50;99.90
22813;DHT22;11573;51.334;3.244;2023-04-15T10:16:02;12.50;99.90
22813;DHT22;11573;51.334;3.244;2023-04-15T10:18:34;12.50;99.90
22813;DHT22;11573;51.334;3.244;2023-04-15T10:21:01;12.50;99.90
22813;DHT22;11573;51.334;3.244;2023-04-15T10:23:28;12.40;99.90
22813;DHT22;11573;51.334;3.244;2023-04-15T10:25:56;12.50;99.90
22813;DHT22;11573;51.334;3.244;2023-04-15T10:28:25;12.50;99.90
22813;DHT22;11573;51.334;3.244;2023-04-15T10:30:52;12.50;99.90
22813;DHT22;11573;51.334;3.244;2023-04-15T10:33:22;12.50;99.90
22813;DHT22;11573;51.334;3.244;2023-04-15T10:35:50;12.50;99.90
22813;DHT22;11573;51.334;3.244;2023-04-15T10:41:14;12.40;99.90
22813;DHT22;11573;51.334;3.244;2023-04-15T10:43:59;12.40;99.90
22813;DHT22;11573;51.334;3.244;2023-04-15T10:46:41;12.40;99.90
22813;DHT22;11573;51.334;3.244;2023-04-15T10:49:23;12.40;99.90
22813;DHT22;11573;51.334;3.244;2023-04-15T10:51:52;12.40;99.90
22813;DHT22;11573;51.334;3.244;2023-04-15T10:59:35;12.40;99.90
22813;DHT22;11573;51.334;3.244;2023-04-15T11:02:04;12.50;99.90
22813;DHT22;11573;51.334;3.244;2023-04-15T11:04:54;12.40;99.90
22813;DHT22;11573;51.334;3.244;2023-04-15T11:12:49;12.50;99.90
22813;DHT22;11573;51.334;3.244;2023-04-15T11:18:25;12.50;99.90
22813;DHT22;11573;51.334;3.244;2023-04-15T11:20:56;12.40;99.90
22813;DHT22;11573;51.334;3.244;2023-04-15T11:23:28;12.40;99.90
22813;DHT22;11573;51.334;3.244;2023-04-15T11:25:57;12.50;99.90
22813;DHT22;11573;51.334;3.244;2023-04-15T11:28:26;12.40;99.90
22813;DHT22;11573;51.334;3.244;2023-04-15T11:30:54;12.50;99.90
22813;DHT22;11573;51.334;3.244;2023-04-15T11:33:22;12.40;99.90
22813;DHT22;11573;51.334;3.244;2023-04-15T11:35:51;12.50;99.90
22813;DHT22;11573;51.334;3.244;2023-04-15T11:38:20;12.50;99.90
22813;DHT22;11573;51.334;3.244;2023-04-15T11:40:48;12.40;99.90
22813;DHT22;11573;51.334;3.244;2023-04-15T11:43:18;12.40;99.90
22813;DHT22;11573;51.334;3.244;2023-04-15T11:45:53;12.30;99.90
22813;DHT22;11573;51.334;3.244;2023-04-15T11:48:24;12.40;99.90
22813;DHT22;11573;51.334;3.244;2023-04-15T11:50:56;12.40;99.90
22813;DHT22;11573;51.334;3.244;2023-04-15T11:53:34;12.50;99.90
22813;DHT22;11573;51.334;3.244;2023-04-15T11:56:02;12.40;99.90
22813;DHT22;11573;51.334;3.244;2023-04-15T11:58:29;12.50;99.90
22813;DHT22;11573;51.334;3.244;2023-04-15T12:01:00;12.60;99.90
22813;DHT22;11573;51.334;3.244;2023-04-15T12:03:27;12.60;99.90
22813;DHT22;11573;51.334;3.244;2023-04-15T12:11:36;12.50;99.90
22813;DHT22;11573;51.334;3.244;2023-04-15T12:16:40;12.60;99.90
22813;DHT22;11573;51.334;3.244;2023-04-15T12:22:04;12.50;99.90
22813;DHT22;11573;51.334;3.244;2023-04-15T12:24:33;12.50;99.90
22813;DHT22;11573;51.334;3.244;2023-04-15T12:27:11;12.50;99.90
22813;DHT22;11573;51.334;3.244;2023-04-15T12:29:40;12.50;99.90
22813;DHT22;11573;51.334;3.244;2023-04-15T12:32:09;12.40;99.90
22813;DHT22;11573;51.334;3.244;2023-04-15T12:34:38;12.30;99.90
22813;DHT22;11573;51.334;3.244;2023-04-15T12:37:08;12.50;99.90
22813;DHT22;11573;51.334;3.244;2023-04-15T12:39:39;12.50;99.90
22813;DHT22;11573;51.334;3.244;2023-04-15T12:42:07;12.50;99.90
22813;DHT22;11573;51.334;3.244;2023-04-15T12:44:35;12.50;99.90
22813;DHT22;11573;51.334;3.244;2023-04-15T12:47:03;12.60;99.90
22813;DHT22;11573;51.334;3.244;2023-04-15T12:49:31;12.60;99.90
22813;DHT22;11573;51.334;3.244;2023-04-15T12:52:00;12.60;99.90
22813;DHT22;11573;51.334;3.244;2023-04-15T12:54:28;12.60;99.90
22813;DHT22;11573;51.334;3.244;2023-04-15T12:56:56;12.60;99.90
22813;DHT22;11573;51.334;3.244;2023-04-15T12:59:23;12.50;99.90
22813;DHT22;11573;51.334;3.244;2023-04-15T13:01:52;12.60;99.90
22813;DHT22;11573;51.334;3.244;2023-04-15T13:04:20;12.70;99.90
22813;DHT22;11573;51.334;3.244;2023-04-15T13:06:48;12.80;99.90
22813;DHT22;11573;51.334;3.244;2023-04-15T13:09:15;12.80;99.90
22813;DHT22;11573;51.334;3.244;2023-04-15T13:11:42;12.70;99.90
22813;DHT22;11573;51.334;3.244;2023-04-15T13:14:09;12.70;99.90
22813;DHT22;11573;51.334;3.244;2023-04-15T13:16:39;12.70;99.90
22813;DHT22;11573;51.334;3.244;2023-04-15T13:19:07;12.70;99.90
22813;DHT22;11573;51.334;3.244;2023-04-15T13:21:34;12.60;99.90
22813;DHT22;11573;51.334;3.244;2023-04-15T13:24:03;12.60;99.90
22813;DHT22;11573;51.334;3.244;2023-04-15T13:26:30;12.60;99.90
22813;DHT22;11573;51.334;3.244;2023-04-15T13:28:58;12.60;99.90
22813;DHT22;11573;51.334;3.244;2023-04-15T13:31:25;12.60;99.90
22813;DHT22;11573;51.334;3.244;2023-04-15T13:33:53;12.50;99.90
22813;DHT22;11573;51.334;3.244;2023-04-15T13:36:20;12.60;99.90
22813;DHT22;11573;51.334;3.244;2023-04-15T13:38:47;12.40;99.90
22813;DHT22;11573;51.334;3.244;2023-04-15T13:41:17;12.40;99.90
22813;DHT22;11573;51.334;3.244;2023-04-15T13:43:44;12.40;99.90
22813;DHT22;11573;51.334;3.244;2023-04-15T13:46:11;12.40;99.90
22813;DHT22;11573;51.334;3.244;2023-04-15T13:48:38;12.40;99.90
22813;DHT22;11573;51.334;3.244;2023-04-15T13:51:05;12.40;99.90
22813;DHT22;11573;51.334;3.244;2023-04-15T13:53:32;12.50;99.90
22813;DHT22;11573;51.334;3.244;2023-04-15T13:56:08;12.50;99.90
22813;DHT22;11573;51.334;3.244;2023-04-15T13:58:36;12.50;99.90
22813;DHT22;11573;51.334;3.244;2023-04-15T14:01:04;12.40;99.90
22813;DHT22;11573;51.334;3.244;2023-04-15T14:03:36;12.50;99.90
22813;DHT22;11573;51.334;3.244;2023-04-15T14:06:04;12.60;99.90
22813;DHT22;11573;51.334;3.244;2023-04-15T14:08:32;12.30;99.90
22813;DHT22;11573;51.334;3.244;2023-04-15T14:10:59;12.30;99.90
22813;DHT22;11573;51.334;3.244;2023-04-15T14:13:26;12.30;99.90
22813;DHT22;11573;51.334;3.244;2023-04-15T14:15:53;12.30;99.90
22813;DHT22;11573;51.334;3.244;2023-04-15T14:18:21;12.30;99.90
22813;DHT22;11573;51.334;3.244;2023-04-15T14:20:48;12.20;99.90
22813;DHT22;11573;51.334;3.244;2023-04-15T14:23:15;12.20;99.90
22813;DHT22;11573;51.334;3.244;2023-04-15T14:25:42;12.20;99.90
22813;DHT22;11573;51.334;3.244;2023-04-15T14:28:10;12.20;99.90
22813;DHT22;11573;51.334;3.244;2023-04-15T14:30:37;12.10;99.90
22813;DHT22;11573;51.334;3.244;2023-04-15T14:33:04;12.10;99.90
22813;DHT22;11573;51.334;3.244;2023-04-15T14:35:31;12.30;99.90
22813;DHT22;11573;51.334;3.244;2023-04-15T14:37:58;12.30;99.90
22813;DHT22;11573;51.334;3.244;2023-04-15T14:40:25;12.30;99.90
22813;DHT22;11573;51.334;3.244;2023-04-15T14:42:52;12.20;99.90
22813;DHT22;11573;51.334;3.244;2023-04-15T14:45:19;12.10;99.90
22813;DHT22;11573;51.334;3.244;2023-04-15T14:47:46;12.10;99.90
22813;DHT22;11573;51.334;3.244;2023-04-15T14:50:13;12.20;99.90
22813;DHT22;11573;51.334;3.244;2023-04-15T14:52:40;12.10;99.90
22813;DHT22;11573;51.334;3.244;2023-04-15T14:55:09;12.10;99.90
22813;DHT22;11573;51.334;3.244;2023-04-15T14:57:36;12.00;99.90
22813;DHT22;11573;51.334;3.244;2023-04-15T15:00:04;12.20;99.90
22813;DHT22;11573;51.334;3.244;2023-04-15T15:02:33;12.10;99.90
22813;DHT22;11573;51.334;3.244;2023-04-15T15:05:06;12.10;99.90
22813;DHT22;11573;51.334;3.244;2023-04-15T15:07:35;12.20;99.90
22813;DHT22;11573;51.334;3.244;2023-04-15T15:10:03;12.20;99.90
22813;DHT22;11573;51.334;3.244;2023-04-15T15:12:31;12.10;99.90
22813;DHT22;11573;51.334;3.244;2023-04-15T15:14:58;12.30;99.90
22813;DHT22;11573;51.334;3.244;2023-04-15T15:17:31;12.20;99.90
22813;DHT22;11573;51.334;3.244;2023-04-15T15:19:58;12.20;99.90
22813;DHT22;11573;51.334;3.244;2023-04-15T15:22:25;12.10;99.90
22813;DHT22;11573;51.334;3.244;2023-04-15T15:24:52;12.20;99.90
22813;DHT22;11573;51.334;3.244;2023-04-15T15:27:19;12.10;99.90
22813;DHT22;11573;51.334;3.244;2023-04-15T15:29:46;12.10;99.90
22813;DHT22;11573;51.334;3.244;2023-04-15T15:32:15;12.10;99.90
22813;DHT22;11573;51.334;3.244;2023-04-15T15:34:42;12.20;99.90
22813;DHT22;11573;51.334;3.244;2023-04-15T15:37:09;12.20;99.90
22813;DHT22;11573;51.334;3.244;2023-04-15T15:39:37;12.10;99.90
22813;DHT22;11573;51.334;3.244;2023-04-15T15:42:04;12.10;99.90
22813;DHT22;11573;51.334;3.244;2023-04-15T15:44:32;12.10;99.90
22813;DHT22;11573;51.334;3.244;2023-04-15T15:47:01;12.10;99.90
22813;DHT22;11573;51.334;3.244;2023-04-15T15:49:29;12.10;99.90
22813;DHT22;11573;51.334;3.244;2023-04-15T15:51:56;12.20;99.90
22813;DHT22;11573;51.334;3.244;2023-04-15T15:54:23;12.10;99.90
22813;DHT22;11573;51.334;3.244;2023-04-15T15:56:50;12.10;99.90
22813;DHT22;11573;51.334;3.244;2023-04-15T15:59:17;12.10;99.90
22813;DHT22;11573;51.334;3.244;2023-04-15T16:01:44;12.10;99.90
22813;DHT22;11573;51.334;3.244;2023-04-15T16:04:11;12.10;99.90
22813;DHT22;11573;51.334;3.244;2023-04-15T16:06:38;12.00;99.90
22813;DHT22;11573;51.334;3.244;2023-04-15T16:09:06;12.00;99.90
22813;DHT22;11573;51.334;3.244;2023-04-15T16:11:33;12.10;99.90
22813;DHT22;11573;51.334;3.244;2023-04-15T16:14:00;12.30;99.90